Pittsburgh, Pennsylvania
Traffic Map
Current Weather Conditions
Pittsburgh, Pennsylvania
Clear
Clear
61°
Feels Like: 61°
Wind Chill: 61° Ceiling: Unl
Heat Index: 61° Visibility: 10mi
Dew Point: 43° Wind: 5mph
Humidity: 52% Direction: 260° (W)
Pressure: 30.12in Gusts: 0mph
Raw Report DataKAGC 280353Z 26004KT 10SM CLR 16/06 A3012 RMK AO2 SLP200 T01610061
Traffic Incident Summary
Active as of:
Severity:
Category:
InformationThere was an issue retrieving the traffic information for this location. Please try a different location or try again shortly.
Advertisements
Track Severe Weather on mobile